sensor_id;sensor_type;location;lat;lon;timestamp;P1;durP1;ratioP1;P2;durP2;ratioP2
16828;SDS011;8531;48.078;11.968;2023-08-06T00:00:19;5.55;;;4.80;;
16828;SDS011;8531;48.078;11.968;2023-08-06T00:02:45;5.05;;;4.55;;
16828;SDS011;8531;48.078;11.968;2023-08-06T00:05:10;6.43;;;4.88;;
16828;SDS011;8531;48.078;11.968;2023-08-06T00:07:36;4.00;;;3.67;;
16828;SDS011;8531;48.078;11.968;2023-08-06T00:10:02;4.57;;;4.18;;
16828;SDS011;8531;48.078;11.968;2023-08-06T00:12:28;5.60;;;3.60;;
16828;SDS011;8531;48.078;11.968;2023-08-06T00:14:53;4.55;;;4.10;;
16828;SDS011;8531;48.078;11.968;2023-08-06T00:17:19;3.63;;;3.33;;
16828;SDS011;8531;48.078;11.968;2023-08-06T00:19:45;4.32;;;3.92;;
16828;SDS011;8531;48.078;11.968;2023-08-06T00:22:11;4.10;;;3.42;;
16828;SDS011;8531;48.078;11.968;2023-08-06T00:24:36;4.13;;;3.83;;
16828;SDS011;8531;48.078;11.968;2023-08-06T00:27:02;4.05;;;3.65;;
16828;SDS011;8531;48.078;11.968;2023-08-06T00:29:28;4.30;;;3.80;;
16828;SDS011;8531;48.078;11.968;2023-08-06T00:31:54;5.97;;;3.83;;
16828;SDS011;8531;48.078;11.968;2023-08-06T00:34:19;4.13;;;3.42;;
16828;SDS011;8531;48.078;11.968;2023-08-06T00:36:45;3.53;;;3.22;;
16828;SDS011;8531;48.078;11.968;2023-08-06T00:39:11;3.63;;;3.10;;
16828;SDS011;8531;48.078;11.968;2023-08-06T00:41:37;3.38;;;3.03;;
16828;SDS011;8531;48.078;11.968;2023-08-06T00:44:02;3.40;;;2.97;;
16828;SDS011;8531;48.078;11.968;2023-08-06T00:46:28;4.15;;;3.22;;
16828;SDS011;8531;48.078;11.968;2023-08-06T00:48:55;3.20;;;2.90;;
16828;SDS011;8531;48.078;11.968;2023-08-06T00:51:21;3.35;;;3.05;;
16828;SDS011;8531;48.078;11.968;2023-08-06T00:53:48;3.15;;;2.78;;
16828;SDS011;8531;48.078;11.968;2023-08-06T00:56:15;2.97;;;2.67;;
16828;SDS011;8531;48.078;11.968;2023-08-06T00:58:41;3.30;;;2.90;;
16828;SDS011;8531;48.078;11.968;2023-08-06T01:01:07;3.17;;;2.83;;
16828;SDS011;8531;48.078;11.968;2023-08-06T01:03:32;4.30;;;3.28;;
16828;SDS011;8531;48.078;11.968;2023-08-06T01:05:58;3.00;;;2.40;;
16828;SDS011;8531;48.078;11.968;2023-08-06T01:13:46;3.40;;;3.10;;
16828;SDS011;8531;48.078;11.968;2023-08-06T01:16:17;4.75;;;2.95;;
16828;SDS011;8531;48.078;11.968;2023-08-06T01:18:46;2.97;;;2.70;;
16828;SDS011;8531;48.078;11.968;2023-08-06T01:21:14;2.60;;;2.40;;
16828;SDS011;8531;48.078;11.968;2023-08-06T01:23:41;4.93;;;2.58;;
16828;SDS011;8531;48.078;11.968;2023-08-06T01:28:59;3.30;;;3.00;;
16828;SDS011;8531;48.078;11.968;2023-08-06T01:31:32;3.80;;;3.20;;
16828;SDS011;8531;48.078;11.968;2023-08-06T01:34:03;3.40;;;2.72;;
16828;SDS011;8531;48.078;11.968;2023-08-06T01:36:32;4.47;;;2.72;;
16828;SDS011;8531;48.078;11.968;2023-08-06T01:38:58;3.38;;;2.55;;
16828;SDS011;8531;48.078;11.968;2023-08-06T01:41:24;2.83;;;2.63;;
16828;SDS011;8531;48.078;11.968;2023-08-06T01:43:50;5.20;;;2.83;;
16828;SDS011;8531;48.078;11.968;2023-08-06T01:46:16;3.95;;;3.00;;
16828;SDS011;8531;48.078;11.968;2023-08-06T01:48:42;3.20;;;2.47;;
16828;SDS011;8531;48.078;11.968;2023-08-06T01:51:08;3.38;;;3.00;;
16828;SDS011;8531;48.078;11.968;2023-08-06T01:53:33;3.72;;;2.80;;
16828;SDS011;8531;48.078;11.968;2023-08-06T01:55:59;5.78;;;3.13;;
16828;SDS011;8531;48.078;11.968;2023-08-06T01:58:25;3.33;;;2.92;;
16828;SDS011;8531;48.078;11.968;2023-08-06T02:00:50;3.72;;;2.92;;
16828;SDS011;8531;48.078;11.968;2023-08-06T02:03:16;4.68;;;2.95;;
16828;SDS011;8531;48.078;11.968;2023-08-06T02:05:42;3.08;;;2.78;;
16828;SDS011;8531;48.078;11.968;2023-08-06T02:08:07;3.35;;;2.80;;
16828;SDS011;8531;48.078;11.968;2023-08-06T02:10:33;3.20;;;2.85;;
16828;SDS011;8531;48.078;11.968;2023-08-06T02:12:59;3.42;;;2.97;;
16828;SDS011;8531;48.078;11.968;2023-08-06T02:15:25;4.03;;;2.80;;
16828;SDS011;8531;48.078;11.968;2023-08-06T02:17:50;2.92;;;2.65;;
16828;SDS011;8531;48.078;11.968;2023-08-06T02:20:16;3.58;;;3.28;;
16828;SDS011;8531;48.078;11.968;2023-08-06T02:22:42;2.92;;;2.72;;
16828;SDS011;8531;48.078;11.968;2023-08-06T02:25:07;4.57;;;3.33;;
16828;SDS011;8531;48.078;11.968;2023-08-06T02:27:33;3.53;;;3.20;;
16828;SDS011;8531;48.078;11.968;2023-08-06T02:29:59;3.03;;;2.72;;
16828;SDS011;8531;48.078;11.968;2023-08-06T02:32:25;3.15;;;2.85;;
16828;SDS011;8531;48.078;11.968;2023-08-06T02:34:50;3.90;;;2.80;;
16828;SDS011;8531;48.078;11.968;2023-08-06T02:37:16;2.80;;;2.60;;
16828;SDS011;8531;48.078;11.968;2023-08-06T02:39:41;3.45;;;3.05;;
16828;SDS011;8531;48.078;11.968;2023-08-06T02:42:08;3.53;;;2.47;;
16828;SDS011;8531;48.078;11.968;2023-08-06T02:44:34;2.78;;;2.47;;
16828;SDS011;8531;48.078;11.968;2023-08-06T02:47:00;3.80;;;2.97;;
16828;SDS011;8531;48.078;11.968;2023-08-06T02:49:26;2.55;;;2.35;;
16828;SDS011;8531;48.078;11.968;2023-08-06T02:51:52;2.83;;;2.58;;
16828;SDS011;8531;48.078;11.968;2023-08-06T02:54:18;2.72;;;2.50;;
16828;SDS011;8531;48.078;11.968;2023-08-06T02:56:47;3.38;;;2.50;;
16828;SDS011;8531;48.078;11.968;2023-08-06T02:59:13;2.25;;;2.00;;
16828;SDS011;8531;48.078;11.968;2023-08-06T03:01:39;3.20;;;2.42;;
16828;SDS011;8531;48.078;11.968;2023-08-06T03:04:05;2.60;;;2.40;;
16828;SDS011;8531;48.078;11.968;2023-08-06T03:06:31;2.75;;;1.95;;
16828;SDS011;8531;48.078;11.968;2023-08-06T03:08:57;2.05;;;1.83;;
16828;SDS011;8531;48.078;11.968;2023-08-06T03:11:23;1.77;;;1.67;;
16828;SDS011;8531;48.078;11.968;2023-08-06T03:13:48;2.30;;;2.10;;
16828;SDS011;8531;48.078;11.968;2023-08-06T03:16:14;1.92;;;1.67;;
16828;SDS011;8531;48.078;11.968;2023-08-06T03:18:40;1.88;;;1.60;;
16828;SDS011;8531;48.078;11.968;2023-08-06T03:21:05;3.38;;;2.10;;
16828;SDS011;8531;48.078;11.968;2023-08-06T03:23:31;2.17;;;1.67;;
16828;SDS011;8531;48.078;11.968;2023-08-06T03:26:03;2.60;;;1.90;;
16828;SDS011;8531;48.078;11.968;2023-08-06T03:28:29;3.42;;;1.90;;
16828;SDS011;8531;48.078;11.968;2023-08-06T03:31:04;2.13;;;1.80;;
16828;SDS011;8531;48.078;11.968;2023-08-06T03:33:30;2.30;;;2.10;;
16828;SDS011;8531;48.078;11.968;2023-08-06T03:35:56;2.13;;;1.83;;
16828;SDS011;8531;48.078;11.968;2023-08-06T03:38:22;2.30;;;1.80;;
16828;SDS011;8531;48.078;11.968;2023-08-06T03:40:48;4.00;;;1.88;;
16828;SDS011;8531;48.078;11.968;2023-08-06T03:43:14;1.95;;;1.70;;
16828;SDS011;8531;48.078;11.968;2023-08-06T03:45:42;1.92;;;1.55;;
16828;SDS011;8531;48.078;11.968;2023-08-06T03:48:08;2.17;;;1.70;;
16828;SDS011;8531;48.078;11.968;2023-08-06T03:50:34;2.95;;;1.60;;
16828;SDS011;8531;48.078;11.968;2023-08-06T03:53:00;1.83;;;1.60;;
16828;SDS011;8531;48.078;11.968;2023-08-06T03:55:26;1.63;;;1.52;;
16828;SDS011;8531;48.078;11.968;2023-08-06T03:57:52;1.67;;;1.52;;
16828;SDS011;8531;48.078;11.968;2023-08-06T04:00:17;1.70;;;1.60;;
16828;SDS011;8531;48.078;11.968;2023-08-06T04:02:43;2.05;;;1.75;;
16828;SDS011;8531;48.078;11.968;2023-08-06T04:05:09;1.50;;;1.40;;
16828;SDS011;8531;48.078;11.968;2023-08-06T04:07:34;1.40;;;1.30;;
16828;SDS011;8531;48.078;11.968;2023-08-06T04:10:01;2.45;;;1.80;;
16828;SDS011;8531;48.078;11.968;2023-08-06T04:12:28;2.35;;;1.50;;
16828;SDS011;8531;48.078;11.968;2023-08-06T04:14:55;2.67;;;1.60;;
16828;SDS011;8531;48.078;11.968;2023-08-06T04:17:22;1.65;;;1.52;;
16828;SDS011;8531;48.078;11.968;2023-08-06T04:19:52;1.63;;;1.05;;
16828;SDS011;8531;48.078;11.968;2023-08-06T04:22:19;1.83;;;1.40;;
16828;SDS011;8531;48.078;11.968;2023-08-06T04:24:45;1.35;;;1.20;;
16828;SDS011;8531;48.078;11.968;2023-08-06T04:27:12;1.90;;;1.30;;
16828;SDS011;8531;48.078;11.968;2023-08-06T04:29:38;2.10;;;1.17;;
16828;SDS011;8531;48.078;11.968;2023-08-06T04:32:05;1.38;;;1.27;;
16828;SDS011;8531;48.078;11.968;2023-08-06T04:34:32;1.50;;;1.40;;
16828;SDS011;8531;48.078;11.968;2023-08-06T04:36:59;1.50;;;1.40;;
16828;SDS011;8531;48.078;11.968;2023-08-06T04:39:25;2.22;;;1.48;;
16828;SDS011;8531;48.078;11.968;2023-08-06T04:41:51;1.48;;;1.30;;
16828;SDS011;8531;48.078;11.968;2023-08-06T04:44:16;1.52;;;1.20;;
16828;SDS011;8531;48.078;11.968;2023-08-06T04:46:42;1.52;;;1.27;;
16828;SDS011;8531;48.078;11.968;2023-08-06T04:49:08;2.22;;;1.30;;
16828;SDS011;8531;48.078;11.968;2023-08-06T04:51:33;1.50;;;1.38;;
16828;SDS011;8531;48.078;11.968;2023-08-06T04:53:59;1.40;;;1.20;;
16828;SDS011;8531;48.078;11.968;2023-08-06T04:56:25;1.88;;;1.45;;
16828;SDS011;8531;48.078;11.968;2023-08-06T04:58:50;1.27;;;1.15;;
16828;SDS011;8531;48.078;11.968;2023-08-06T05:01:16;2.05;;;1.45;;
16828;SDS011;8531;48.078;11.968;2023-08-06T05:03:42;1.67;;;1.17;;
16828;SDS011;8531;48.078;11.968;2023-08-06T05:06:07;2.22;;;1.40;;
16828;SDS011;8531;48.078;11.968;2023-08-06T05:08:33;3.08;;;1.38;;
16828;SDS011;8531;48.078;11.968;2023-08-06T05:10:59;1.60;;;1.30;;
16828;SDS011;8531;48.078;11.968;2023-08-06T05:13:25;2.28;;;1.20;;
16828;SDS011;8531;48.078;11.968;2023-08-06T05:15:50;2.67;;;1.40;;
16828;SDS011;8531;48.078;11.968;2023-08-06T05:18:18;2.35;;;1.42;;
16828;SDS011;8531;48.078;11.968;2023-08-06T05:20:44;2.17;;;1.52;;
16828;SDS011;8531;48.078;11.968;2023-08-06T05:23:10;2.55;;;1.35;;
16828;SDS011;8531;48.078;11.968;2023-08-06T05:25:35;2.40;;;1.33;;
16828;SDS011;8531;48.078;11.968;2023-08-06T05:28:02;1.52;;;1.30;;
16828;SDS011;8531;48.078;11.968;2023-08-06T05:30:28;2.85;;;1.05;;
16828;SDS011;8531;48.078;11.968;2023-08-06T05:32:54;2.15;;;1.45;;
16828;SDS011;8531;48.078;11.968;2023-08-06T05:35:20;1.80;;;1.25;;
16828;SDS011;8531;48.078;11.968;2023-08-06T05:37:46;1.23;;;1.13;;
16828;SDS011;8531;48.078;11.968;2023-08-06T05:40:12;2.85;;;1.15;;
16828;SDS011;8531;48.078;11.968;2023-08-06T05:42:39;1.75;;;1.30;;
16828;SDS011;8531;48.078;11.968;2023-08-06T05:45:05;1.90;;;1.15;;
16828;SDS011;8531;48.078;11.968;2023-08-06T05:47:31;1.92;;;1.20;;
16828;SDS011;8531;48.078;11.968;2023-08-06T05:49:57;1.75;;;1.00;;
16828;SDS011;8531;48.078;11.968;2023-08-06T05:52:22;1.80;;;1.42;;
16828;SDS011;8531;48.078;11.968;2023-08-06T05:54:48;2.35;;;1.00;;
16828;SDS011;8531;48.078;11.968;2023-08-06T05:57:14;4.38;;;1.15;;
16828;SDS011;8531;48.078;11.968;2023-08-06T05:59:41;1.65;;;1.25;;
16828;SDS011;8531;48.078;11.968;2023-08-06T06:02:07;1.38;;;1.10;;
16828;SDS011;8531;48.078;11.968;2023-08-06T06:04:32;2.50;;;1.25;;
16828;SDS011;8531;48.078;11.968;2023-08-06T06:06:58;4.03;;;1.25;;
16828;SDS011;8531;48.078;11.968;2023-08-06T06:09:24;1.67;;;1.15;;
16828;SDS011;8531;48.078;11.968;2023-08-06T06:11:50;3.88;;;1.25;;
16828;SDS011;8531;48.078;11.968;2023-08-06T06:14:18;2.53;;;1.55;;
16828;SDS011;8531;48.078;11.968;2023-08-06T06:16:44;1.60;;;1.10;;
16828;SDS011;8531;48.078;11.968;2023-08-06T06:19:11;1.40;;;1.13;;
16828;SDS011;8531;48.078;11.968;2023-08-06T06:21:37;1.95;;;1.20;;
16828;SDS011;8531;48.078;11.968;2023-08-06T06:24:03;3.35;;;1.13;;
16828;SDS011;8531;48.078;11.968;2023-08-06T06:26:30;1.38;;;1.20;;
16828;SDS011;8531;48.078;11.968;2023-08-06T06:28:56;1.15;;;1.08;;
16828;SDS011;8531;48.078;11.968;2023-08-06T06:31:22;1.15;;;0.85;;
16828;SDS011;8531;48.078;11.968;2023-08-06T06:33:48;1.40;;;1.08;;
16828;SDS011;8531;48.078;11.968;2023-08-06T06:36:14;2.75;;;1.13;;
16828;SDS011;8531;48.078;11.968;2023-08-06T06:38:39;4.55;;;1.27;;
16828;SDS011;8531;48.078;11.968;2023-08-06T06:41:05;1.67;;;1.00;;
16828;SDS011;8531;48.078;11.968;2023-08-06T06:43:32;1.60;;;1.17;;
16828;SDS011;8531;48.078;11.968;2023-08-06T06:45:58;1.00;;;0.90;;
16828;SDS011;8531;48.078;11.968;2023-08-06T06:48:25;2.35;;;1.30;;
16828;SDS011;8531;48.078;11.968;2023-08-06T06:50:52;1.08;;;0.90;;
16828;SDS011;8531;48.078;11.968;2023-08-06T06:53:18;3.35;;;1.42;;
16828;SDS011;8531;48.078;11.968;2023-08-06T06:55:43;1.13;;;1.02;;
16828;SDS011;8531;48.078;11.968;2023-08-06T06:58:09;1.10;;;1.00;;
16828;SDS011;8531;48.078;11.968;2023-08-06T07:00:35;2.70;;;1.10;;
16828;SDS011;8531;48.078;11.968;2023-08-06T07:03:02;1.98;;;0.88;;
16828;SDS011;8531;48.078;11.968;2023-08-06T07:05:27;1.73;;;1.10;;
16828;SDS011;8531;48.078;11.968;2023-08-06T07:07:53;2.42;;;1.10;;
16828;SDS011;8531;48.078;11.968;2023-08-06T07:10:19;0.60;;;0.60;;
16828;SDS011;8531;48.078;11.968;2023-08-06T07:12:44;2.88;;;2.03;;
16828;SDS011;8531;48.078;11.968;2023-08-06T07:15:10;3.30;;;0.95;;
16828;SDS011;8531;48.078;11.968;2023-08-06T07:17:36;2.15;;;0.75;;
16828;SDS011;8531;48.078;11.968;2023-08-06T07:20:02;1.48;;;1.15;;
16828;SDS011;8531;48.078;11.968;2023-08-06T07:22:28;1.88;;;0.93;;
16828;SDS011;8531;48.078;11.968;2023-08-06T07:24:53;3.08;;;1.08;;
16828;SDS011;8531;48.078;11.968;2023-08-06T07:27:19;1.20;;;0.80;;
16828;SDS011;8531;48.078;11.968;2023-08-06T07:29:45;1.33;;;0.70;;
16828;SDS011;8531;48.078;11.968;2023-08-06T07:32:10;2.95;;;0.75;;
16828;SDS011;8531;48.078;11.968;2023-08-06T07:34:36;1.75;;;0.70;;
16828;SDS011;8531;48.078;11.968;2023-08-06T07:37:02;1.80;;;0.80;;
16828;SDS011;8531;48.078;11.968;2023-08-06T07:39:27;1.63;;;0.90;;
16828;SDS011;8531;48.078;11.968;2023-08-06T07:41:53;1.60;;;0.90;;
16828;SDS011;8531;48.078;11.968;2023-08-06T07:44:19;1.48;;;0.95;;
16828;SDS011;8531;48.078;11.968;2023-08-06T07:46:45;1.38;;;0.82;;
16828;SDS011;8531;48.078;11.968;2023-08-06T07:49:10;2.67;;;0.70;;
16828;SDS011;8531;48.078;11.968;2023-08-06T07:51:36;0.60;;;0.40;;
16828;SDS011;8531;48.078;11.968;2023-08-06T07:54:02;0.93;;;0.32;;
16828;SDS011;8531;48.078;11.968;2023-08-06T07:56:28;1.45;;;0.35;;
16828;SDS011;8531;48.078;11.968;2023-08-06T07:58:54;3.60;;;0.50;;
16828;SDS011;8531;48.078;11.968;2023-08-06T08:01:19;1.10;;;0.30;;
16828;SDS011;8531;48.078;11.968;2023-08-06T08:03:45;0.63;;;0.32;;
16828;SDS011;8531;48.078;11.968;2023-08-06T08:06:11;0.43;;;0.30;;
16828;SDS011;8531;48.078;11.968;2023-08-06T08:08:36;1.48;;;0.40;;
16828;SDS011;8531;48.078;11.968;2023-08-06T08:11:03;0.70;;;0.47;;
16828;SDS011;8531;48.078;11.968;2023-08-06T08:13:30;1.00;;;0.50;;
16828;SDS011;8531;48.078;11.968;2023-08-06T08:15:57;1.00;;;0.28;;
16828;SDS011;8531;48.078;11.968;2023-08-06T08:18:23;0.77;;;0.35;;
16828;SDS011;8531;48.078;11.968;2023-08-06T08:20:49;1.65;;;0.40;;
16828;SDS011;8531;48.078;11.968;2023-08-06T08:23:14;2.00;;;0.73;;
16828;SDS011;8531;48.078;11.968;2023-08-06T08:25:40;1.63;;;0.50;;
16828;SDS011;8531;48.078;11.968;2023-08-06T08:28:06;0.68;;;0.50;;
16828;SDS011;8531;48.078;11.968;2023-08-06T08:30:32;1.88;;;0.60;;
16828;SDS011;8531;48.078;11.968;2023-08-06T08:32:58;0.88;;;0.40;;
16828;SDS011;8531;48.078;11.968;2023-08-06T08:35:24;0.80;;;0.50;;
16828;SDS011;8531;48.078;11.968;2023-08-06T08:37:49;1.38;;;0.50;;
16828;SDS011;8531;48.078;11.968;2023-08-06T08:40:15;0.60;;;0.47;;
16828;SDS011;8531;48.078;11.968;2023-08-06T08:42:41;1.30;;;0.65;;
16828;SDS011;8531;48.078;11.968;2023-08-06T08:45:14;1.67;;;0.50;;
16828;SDS011;8531;48.078;11.968;2023-08-06T08:47:43;0.82;;;0.30;;
16828;SDS011;8531;48.078;11.968;2023-08-06T08:50:11;1.70;;;0.70;;
16828;SDS011;8531;48.078;11.968;2023-08-06T08:52:38;0.60;;;0.30;;
16828;SDS011;8531;48.078;11.968;2023-08-06T08:55:05;3.50;;;0.60;;
16828;SDS011;8531;48.078;11.968;2023-08-06T08:57:32;1.48;;;0.50;;
16828;SDS011;8531;48.078;11.968;2023-08-06T08:59:58;0.93;;;0.47;;
16828;SDS011;8531;48.078;11.968;2023-08-06T09:02:25;2.38;;;0.70;;
16828;SDS011;8531;48.078;11.968;2023-08-06T09:04:55;1.13;;;0.35;;
16828;SDS011;8531;48.078;11.968;2023-08-06T09:07:24;1.33;;;0.40;;
16828;SDS011;8531;48.078;11.968;2023-08-06T09:09:51;1.85;;;0.40;;
16828;SDS011;8531;48.078;11.968;2023-08-06T09:12:18;0.73;;;0.20;;
16828;SDS011;8531;48.078;11.968;2023-08-06T09:14:44;2.30;;;0.40;;
16828;SDS011;8531;48.078;11.968;2023-08-06T09:17:09;1.15;;;0.20;;
16828;SDS011;8531;48.078;11.968;2023-08-06T09:19:36;0.55;;;0.22;;
16828;SDS011;8531;48.078;11.968;2023-08-06T09:22:02;0.55;;;0.20;;
16828;SDS011;8531;48.078;11.968;2023-08-06T09:24:28;0.30;;;0.20;;
16828;SDS011;8531;48.078;11.968;2023-08-06T09:26:53;0.73;;;0.20;;
16828;SDS011;8531;48.078;11.968;2023-08-06T09:29:19;0.38;;;0.10;;
16828;SDS011;8531;48.078;11.968;2023-08-06T09:31:48;3.05;;;0.38;;
16828;SDS011;8531;48.078;11.968;2023-08-06T09:34:19;0.40;;;0.10;;
16828;SDS011;8531;48.078;11.968;2023-08-06T09:36:51;0.45;;;0.15;;
16828;SDS011;8531;48.078;11.968;2023-08-06T09:39:24;0.70;;;0.30;;
16828;SDS011;8531;48.078;11.968;2023-08-06T09:41:57;0.40;;;0.10;;
16828;SDS011;8531;48.078;11.968;2023-08-06T09:44:24;0.32;;;0.10;;
16828;SDS011;8531;48.078;11.968;2023-08-06T09:46:56;1.05;;;0.20;;
16828;SDS011;8531;48.078;11.968;2023-08-06T09:49:26;0.65;;;0.30;;
16828;SDS011;8531;48.078;11.968;2023-08-06T09:51:54;0.00;;;0.00;;
16828;SDS011;8531;48.078;11.968;2023-08-06T09:54:24;0.88;;;0.10;;
16828;SDS011;8531;48.078;11.968;2023-08-06T09:56:52;0.35;;;0.10;;
16828;SDS011;8531;48.078;11.968;2023-08-06T09:59:19;0.75;;;0.13;;
16828;SDS011;8531;48.078;11.968;2023-08-06T10:01:45;0.47;;;0.10;;
16828;SDS011;8531;48.078;11.968;2023-08-06T10:04:11;0.20;;;0.10;;
16828;SDS011;8531;48.078;11.968;2023-08-06T10:06:41;0.08;;;0.03;;
16828;SDS011;8531;48.078;11.968;2023-08-06T10:09:07;0.30;;;0.10;;
16828;SDS011;8531;48.078;11.968;2023-08-06T10:11:34;0.10;;;0.10;;
16828;SDS011;8531;48.078;11.968;2023-08-06T10:14:10;3.20;;;0.32;;
16828;SDS011;8531;48.078;11.968;2023-08-06T10:16:38;0.88;;;0.10;;
16828;SDS011;8531;48.078;11.968;2023-08-06T10:19:05;0.20;;;0.10;;
16828;SDS011;8531;48.078;11.968;2023-08-06T10:21:34;0.10;;;0.00;;
16828;SDS011;8531;48.078;11.968;2023-08-06T10:24:00;0.25;;;0.10;;
16828;SDS011;8531;48.078;11.968;2023-08-06T10:26:27;0.43;;;0.20;;
16828;SDS011;8531;48.078;11.968;2023-08-06T10:28:54;0.00;;;0.00;;
16828;SDS011;8531;48.078;11.968;2023-08-06T10:31:24;1.35;;;0.15;;
16828;SDS011;8531;48.078;11.968;2023-08-06T10:34:24;0.63;;;0.10;;
16828;SDS011;8531;48.078;11.968;2023-08-06T10:36:50;0.10;;;0.10;;
16828;SDS011;8531;48.078;11.968;2023-08-06T10:39:20;0.28;;;0.13;;
16828;SDS011;8531;48.078;11.968;2023-08-06T10:41:46;0.10;;;0.00;;
16828;SDS011;8531;48.078;11.968;2023-08-06T10:44:11;0.20;;;0.00;;
16828;SDS011;8531;48.078;11.968;2023-08-06T10:46:37;2.08;;;0.10;;
16828;SDS011;8531;48.078;11.968;2023-08-06T10:49:03;0.82;;;0.00;;
16828;SDS011;8531;48.078;11.968;2023-08-06T10:51:29;0.20;;;0.00;;
16828;SDS011;8531;48.078;11.968;2023-08-06T10:53:55;0.00;;;0.00;;
16828;SDS011;8531;48.078;11.968;2023-08-06T10:56:24;0.15;;;0.00;;
16828;SDS011;8531;48.078;11.968;2023-08-06T10:58:54;0.10;;;0.00;;
16828;SDS011;8531;48.078;11.968;2023-08-06T11:01:23;0.00;;;0.00;;
16828;SDS011;8531;48.078;11.968;2023-08-06T11:03:49;1.13;;;0.10;;
16828;SDS011;8531;48.078;11.968;2023-08-06T11:06:18;0.30;;;0.15;;
16828;SDS011;8531;48.078;11.968;2023-08-06T11:08:48;1.42;;;0.10;;
16828;SDS011;8531;48.078;11.968;2023-08-06T11:11:18;0.00;;;0.00;;
16828;SDS011;8531;48.078;11.968;2023-08-06T11:13:47;0.73;;;0.00;;
16828;SDS011;8531;48.078;11.968;2023-08-06T11:16:18;0.43;;;0.00;;
16828;SDS011;8531;48.078;11.968;2023-08-06T11:18:50;0.10;;;0.00;;
16828;SDS011;8531;48.078;11.968;2023-08-06T11:21:20;0.00;;;0.00;;
16828;SDS011;8531;48.078;11.968;2023-08-06T11:23:46;0.10;;;0.00;;
16828;SDS011;8531;48.078;11.968;2023-08-06T11:26:12;0.57;;;0.10;;
16828;SDS011;8531;48.078;11.968;2023-08-06T11:28:43;1.55;;;0.10;;
16828;SDS011;8531;48.078;11.968;2023-08-06T11:31:18;0.10;;;0.00;;
16828;SDS011;8531;48.078;11.968;2023-08-06T11:33:44;0.52;;;0.00;;
16828;SDS011;8531;48.078;11.968;2023-08-06T11:36:10;1.85;;;0.00;;
16828;SDS011;8531;48.078;11.968;2023-08-06T11:38:35;0.10;;;0.03;;
16828;SDS011;8531;48.078;11.968;2023-08-06T11:41:01;0.70;;;0.00;;
16828;SDS011;8531;48.078;11.968;2023-08-06T11:43:29;0.85;;;0.08;;
16828;SDS011;8531;48.078;11.968;2023-08-06T11:45:56;0.20;;;0.00;;
16828;SDS011;8531;48.078;11.968;2023-08-06T11:48:21;0.20;;;0.10;;
16828;SDS011;8531;48.078;11.968;2023-08-06T11:50:47;0.17;;;0.00;;
16828;SDS011;8531;48.078;11.968;2023-08-06T11:53:13;8.02;;;0.30;;
16828;SDS011;8531;48.078;11.968;2023-08-06T11:55:40;0.10;;;0.00;;
16828;SDS011;8531;48.078;11.968;2023-08-06T11:58:06;4.30;;;0.10;;
16828;SDS011;8531;48.078;11.968;2023-08-06T12:00:32;1.45;;;0.03;;
16828;SDS011;8531;48.078;11.968;2023-08-06T12:02:57;1.15;;;0.00;;
16828;SDS011;8531;48.078;11.968;2023-08-06T12:05:24;0.10;;;0.08;;
16828;SDS011;8531;48.078;11.968;2023-08-06T12:07:58;0.30;;;0.30;;
16828;SDS011;8531;48.078;11.968;2023-08-06T12:10:26;0.63;;;0.00;;
16828;SDS011;8531;48.078;11.968;2023-08-06T12:12:53;0.00;;;0.00;;
16828;SDS011;8531;48.078;11.968;2023-08-06T12:15:19;0.00;;;0.00;;
16828;SDS011;8531;48.078;11.968;2023-08-06T12:17:45;0.00;;;0.00;;
16828;SDS011;8531;48.078;11.968;2023-08-06T12:20:11;0.20;;;0.10;;
16828;SDS011;8531;48.078;11.968;2023-08-06T12:22:37;0.00;;;0.00;;
16828;SDS011;8531;48.078;11.968;2023-08-06T12:27:35;0.10;;;0.00;;
16828;SDS011;8531;48.078;11.968;2023-08-06T12:30:02;0.10;;;0.10;;
16828;SDS011;8531;48.078;11.968;2023-08-06T12:32:29;0.28;;;0.28;;
16828;SDS011;8531;48.078;11.968;2023-08-06T12:34:55;0.05;;;0.00;;
16828;SDS011;8531;48.078;11.968;2023-08-06T12:37:20;0.20;;;0.00;;
16828;SDS011;8531;48.078;11.968;2023-08-06T12:39:48;0.08;;;0.00;;
16828;SDS011;8531;48.078;11.968;2023-08-06T12:42:13;0.10;;;0.03;;
16828;SDS011;8531;48.078;11.968;2023-08-06T12:44:39;0.00;;;0.00;;
16828;SDS011;8531;48.078;11.968;2023-08-06T12:47:05;1.15;;;0.00;;
16828;SDS011;8531;48.078;11.968;2023-08-06T12:49:31;0.85;;;0.10;;
16828;SDS011;8531;48.078;11.968;2023-08-06T12:51:58;0.13;;;0.10;;
16828;SDS011;8531;48.078;11.968;2023-08-06T12:54:25;0.00;;;0.00;;
16828;SDS011;8531;48.078;11.968;2023-08-06T12:56:51;1.60;;;0.10;;
16828;SDS011;8531;48.078;11.968;2023-08-06T12:59:17;0.10;;;0.10;;
16828;SDS011;8531;48.078;11.968;2023-08-06T13:01:43;0.10;;;0.10;;
16828;SDS011;8531;48.078;11.968;2023-08-06T13:04:09;0.20;;;0.10;;
16828;SDS011;8531;48.078;11.968;2023-08-06T13:06:35;0.10;;;0.00;;
16828;SDS011;8531;48.078;11.968;2023-08-06T13:09:11;0.47;;;0.00;;
16828;SDS011;8531;48.078;11.968;2023-08-06T13:11:37;0.00;;;0.00;;
16828;SDS011;8531;48.078;11.968;2023-08-06T13:14:05;0.75;;;0.17;;
16828;SDS011;8531;48.078;11.968;2023-08-06T13:16:35;0.65;;;0.10;;
16828;SDS011;8531;48.078;11.968;2023-08-06T13:19:02;0.38;;;0.10;;
16828;SDS011;8531;48.078;11.968;2023-08-06T13:21:35;0.43;;;0.10;;
16828;SDS011;8531;48.078;11.968;2023-08-06T13:24:16;0.00;;;0.00;;
16828;SDS011;8531;48.078;11.968;2023-08-06T13:26:43;1.83;;;0.10;;
16828;SDS011;8531;48.078;11.968;2023-08-06T13:29:08;0.20;;;0.08;;
16828;SDS011;8531;48.078;11.968;2023-08-06T13:31:35;0.10;;;0.00;;
16828;SDS011;8531;48.078;11.968;2023-08-06T13:34:01;0.63;;;0.30;;
16828;SDS011;8531;48.078;11.968;2023-08-06T13:36:27;0.10;;;0.00;;
16828;SDS011;8531;48.078;11.968;2023-08-06T13:38:53;0.80;;;0.00;;
16828;SDS011;8531;48.078;11.968;2023-08-06T13:41:19;0.08;;;0.00;;
16828;SDS011;8531;48.078;11.968;2023-08-06T13:43:45;0.95;;;0.13;;
16828;SDS011;8531;48.078;11.968;2023-08-06T13:46:11;0.00;;;0.00;;
16828;SDS011;8531;48.078;11.968;2023-08-06T13:48:41;0.03;;;0.00;;
16828;SDS011;8531;48.078;11.968;2023-08-06T13:51:11;0.10;;;0.05;;
16828;SDS011;8531;48.078;11.968;2023-08-06T13:53:38;0.00;;;0.00;;
16828;SDS011;8531;48.078;11.968;2023-08-06T13:56:08;0.60;;;0.00;;
16828;SDS011;8531;48.078;11.968;2023-08-06T13:58:40;0.15;;;0.00;;
16828;SDS011;8531;48.078;11.968;2023-08-06T14:01:05;0.00;;;0.00;;
16828;SDS011;8531;48.078;11.968;2023-08-06T14:03:31;0.13;;;0.10;;
16828;SDS011;8531;48.078;11.968;2023-08-06T14:05:57;0.28;;;0.00;;
16828;SDS011;8531;48.078;11.968;2023-08-06T14:08:23;0.10;;;0.00;;
16828;SDS011;8531;48.078;11.968;2023-08-06T14:10:50;0.45;;;0.00;;
16828;SDS011;8531;48.078;11.968;2023-08-06T14:13:16;0.13;;;0.10;;
16828;SDS011;8531;48.078;11.968;2023-08-06T14:15:42;0.15;;;0.08;;
16828;SDS011;8531;48.078;11.968;2023-08-06T14:18:11;0.13;;;0.00;;
16828;SDS011;8531;48.078;11.968;2023-08-06T14:20:38;0.30;;;0.10;;
16828;SDS011;8531;48.078;11.968;2023-08-06T14:23:03;0.10;;;0.10;;
16828;SDS011;8531;48.078;11.968;2023-08-06T14:25:29;1.52;;;0.30;;
16828;SDS011;8531;48.078;11.968;2023-08-06T14:27:55;0.25;;;0.10;;
16828;SDS011;8531;48.078;11.968;2023-08-06T14:30:20;2.20;;;0.40;;
16828;SDS011;8531;48.078;11.968;2023-08-06T14:32:46;1.95;;;0.20;;
16828;SDS011;8531;48.078;11.968;2023-08-06T14:35:12;0.20;;;0.00;;
16828;SDS011;8531;48.078;11.968;2023-08-06T14:37:37;1.27;;;0.10;;
16828;SDS011;8531;48.078;11.968;2023-08-06T14:40:04;0.13;;;0.00;;
16828;SDS011;8531;48.078;11.968;2023-08-06T14:42:30;0.00;;;0.00;;
16828;SDS011;8531;48.078;11.968;2023-08-06T14:44:56;0.10;;;0.10;;
16828;SDS011;8531;48.078;11.968;2023-08-06T14:47:22;0.00;;;0.00;;
16828;SDS011;8531;48.078;11.968;2023-08-06T14:49:48;0.17;;;0.00;;
16828;SDS011;8531;48.078;11.968;2023-08-06T14:52:14;0.98;;;0.10;;
16828;SDS011;8531;48.078;11.968;2023-08-06T14:54:40;0.10;;;0.00;;